createdAt,value
2018-12-15T00:01:08.819Z,10.87
2018-12-15T00:03:36.437Z,10.67
2018-12-15T00:06:04.169Z,11.03
2018-12-15T00:08:32.697Z,11.50
2018-12-15T00:11:00.326Z,10.87
2018-12-15T00:13:28.058Z,11.23
2018-12-15T00:15:55.466Z,11.20
2018-12-15T00:18:23.084Z,11.07
2018-12-15T00:20:50.585Z,10.83
2018-12-15T00:23:18.095Z,11.00
2018-12-15T00:25:45.560Z,11.77
2018-12-15T00:28:13.023Z,11.30
2018-12-15T00:30:40.500Z,10.80
2018-12-15T00:33:07.975Z,10.27
2018-12-15T00:35:35.402Z,11.33
2018-12-15T00:38:02.874Z,10.80
2018-12-15T00:40:30.391Z,10.30
2018-12-15T00:42:57.858Z,10.50
2018-12-15T00:45:25.354Z,10.00
2018-12-15T00:47:52.816Z,10.27
2018-12-15T00:50:20.287Z,10.43
2018-12-15T00:52:47.735Z,9.67
2018-12-15T00:55:15.165Z,10.80
2018-12-15T00:57:43.235Z,10.97
2018-12-15T01:00:11.154Z,10.77
2018-12-15T01:02:38.907Z,10.97
2018-12-15T01:05:06.629Z,10.47
2018-12-15T01:07:35.278Z,10.13
2018-12-15T01:10:03.087Z,10.13
2018-12-15T01:12:30.582Z,10.70
2018-12-15T01:14:58.251Z,10.03
2018-12-15T01:17:25.776Z,10.23
2018-12-15T01:19:53.219Z,10.27
2018-12-15T01:22:20.655Z,10.90
2018-12-15T01:24:48.220Z,10.40
2018-12-15T01:27:15.715Z,10.40
2018-12-15T01:29:43.231Z,9.87
2018-12-15T01:32:10.775Z,10.90
2018-12-15T01:34:38.876Z,10.20
2018-12-15T01:37:07.033Z,11.20
2018-12-15T01:39:34.803Z,10.10
2018-12-15T01:42:02.252Z,11.03
2018-12-15T01:44:29.754Z,9.30
2018-12-15T01:46:57.493Z,9.13
2018-12-15T01:49:25.155Z,10.47
2018-12-15T01:51:52.736Z,9.07
2018-12-15T01:54:20.199Z,9.87
2018-12-15T01:56:47.725Z,10.13
2018-12-15T01:59:15.244Z,10.13
2018-12-15T02:01:42.750Z,10.23
2018-12-15T02:04:10.522Z,11.07
2018-12-15T02:06:38.119Z,10.63
2018-12-15T02:09:06.185Z,10.27
2018-12-15T02:11:33.734Z,10.33
2018-12-15T02:14:01.415Z,11.07
2018-12-15T02:16:28.987Z,10.27
2018-12-15T02:18:56.583Z,10.87
2018-12-15T02:21:24.125Z,11.17
2018-12-15T02:23:51.891Z,11.03
2018-12-15T02:26:19.466Z,11.07
2018-12-15T02:28:46.961Z,11.30
2018-12-15T02:31:14.433Z,10.77
2018-12-15T02:33:42.003Z,10.67
2018-12-15T02:36:09.548Z,10.50
2018-12-15T02:38:37.127Z,10.13
2018-12-15T02:41:04.876Z,11.37
2018-12-15T02:43:32.591Z,11.03
2018-12-15T02:46:00.064Z,10.57
2018-12-15T02:48:27.824Z,10.57
2018-12-15T02:50:55.492Z,10.13
2018-12-15T02:53:22.971Z,10.60
2018-12-15T02:55:50.745Z,10.70
2018-12-15T02:58:18.539Z,10.03
2018-12-15T03:00:46.081Z,10.37
2018-12-15T03:03:13.651Z,10.37
2018-12-15T03:05:41.290Z,10.97
2018-12-15T03:08:08.793Z,11.57
2018-12-15T03:10:36.266Z,10.63
2018-12-15T03:13:03.863Z,10.40
2018-12-15T03:15:31.388Z,9.77
2018-12-15T03:17:58.913Z,10.23
2018-12-15T03:20:26.507Z,10.40
2018-12-15T03:22:53.955Z,10.37
2018-12-15T03:25:21.438Z,11.43
2018-12-15T03:27:48.993Z,10.43
2018-12-15T03:30:16.597Z,10.23
2018-12-15T03:32:44.117Z,10.43
2018-12-15T03:35:11.664Z,10.90
2018-12-15T03:37:39.117Z,10.77
2018-12-15T03:40:06.559Z,10.33
2018-12-15T03:42:34.083Z,10.60
2018-12-15T03:45:01.553Z,10.50
2018-12-15T03:47:29.050Z,10.27
2018-12-15T03:49:56.580Z,10.67
2018-12-15T03:52:24.163Z,10.67
2018-12-15T03:54:51.730Z,11.30
2018-12-15T03:57:19.399Z,10.83
2018-12-15T03:59:46.870Z,10.13
2018-12-15T04:02:14.451Z,10.77
2018-12-15T04:04:42.270Z,10.90
2018-12-15T04:07:09.742Z,10.17
2018-12-15T04:09:37.226Z,9.93
2018-12-15T04:12:04.747Z,10.73
2018-12-15T04:14:32.240Z,10.13
2018-12-15T04:16:59.753Z,10.33
2018-12-15T04:19:27.220Z,10.23
2018-12-15T04:22:19.983Z,9.97
2018-12-15T04:24:47.752Z,10.57
2018-12-15T04:27:15.282Z,10.73
2018-12-15T04:29:42.719Z,10.33
2018-12-15T04:32:10.156Z,10.23
2018-12-15T04:34:37.668Z,10.57
2018-12-15T04:37:05.150Z,10.67
2018-12-15T04:39:32.685Z,9.80
2018-12-15T04:42:00.209Z,9.90
2018-12-15T04:44:27.692Z,10.53
2018-12-15T04:46:55.183Z,10.30
2018-12-15T04:49:22.759Z,9.70
2018-12-15T04:51:50.284Z,9.73
2018-12-15T04:56:58.847Z,8.87
2018-12-15T04:59:26.393Z,8.53
2018-12-15T05:01:53.898Z,9.30
2018-12-15T05:04:21.438Z,9.80
2018-12-15T05:06:48.973Z,10.17
2018-12-15T05:09:16.702Z,10.30
2018-12-15T05:11:44.426Z,9.80
2018-12-15T05:14:11.912Z,10.67
2018-12-15T05:16:39.532Z,9.40
2018-12-15T05:19:07.182Z,9.80
2018-12-15T05:21:34.793Z,9.57
2018-12-15T05:24:02.382Z,9.73
2018-12-15T05:26:29.898Z,9.40
2018-12-15T05:28:57.547Z,9.50
2018-12-15T05:31:25.111Z,8.93
2018-12-15T05:33:52.695Z,8.93
2018-12-15T05:36:20.223Z,8.90
2018-12-15T05:38:47.715Z,8.87
2018-12-15T05:41:15.174Z,9.17
2018-12-15T05:43:42.681Z,9.23
2018-12-15T05:46:10.204Z,8.67
2018-12-15T05:48:37.732Z,9.30
2018-12-15T05:51:05.245Z,9.93
2018-12-15T05:53:32.759Z,10.03
2018-12-15T05:56:00.666Z,9.97
2018-12-15T05:58:28.100Z,11.03
2018-12-15T06:00:55.497Z,10.20
2018-12-15T06:03:22.893Z,10.20
2018-12-15T06:05:50.501Z,10.37
2018-12-15T06:08:18.118Z,10.53
2018-12-15T06:10:45.587Z,9.87
2018-12-15T06:13:13.093Z,10.03
2018-12-15T06:15:40.626Z,10.13
2018-12-15T06:18:08.127Z,10.07
2018-12-15T06:20:35.607Z,9.67
2018-12-15T06:23:03.001Z,10.23
2018-12-15T06:25:30.463Z,9.40
2018-12-15T06:27:57.905Z,9.13
2018-12-15T06:30:25.461Z,8.57
2018-12-15T06:32:52.935Z,7.20
2018-12-15T06:35:20.711Z,7.53
2018-12-15T06:37:48.300Z,6.87
2018-12-15T06:40:15.794Z,7.17
2018-12-15T06:42:43.273Z,6.43
2018-12-15T06:45:10.837Z,7.13
2018-12-15T06:47:38.341Z,7.83
2018-12-15T06:50:05.872Z,7.33
2018-12-15T06:52:33.854Z,7.40
2018-12-15T06:55:01.389Z,6.87
2018-12-15T06:57:28.749Z,7.27
2018-12-15T06:59:56.214Z,7.37
2018-12-15T07:02:23.699Z,6.80
2018-12-15T07:04:51.248Z,7.17
2018-12-15T07:07:18.702Z,8.00
2018-12-15T07:09:46.308Z,7.93
2018-12-15T07:12:14.142Z,7.47
2018-12-15T07:14:41.663Z,6.90
2018-12-15T07:17:09.275Z,8.10
2018-12-15T07:19:36.718Z,7.37
2018-12-15T07:22:04.261Z,6.87
2018-12-15T07:24:31.670Z,7.17
2018-12-15T07:26:59.182Z,6.77
2018-12-15T07:29:26.682Z,6.77
2018-12-15T07:31:54.274Z,6.57
2018-12-15T07:34:21.774Z,6.47
2018-12-15T07:36:49.212Z,7.03
2018-12-15T07:39:16.843Z,6.67
2018-12-15T07:41:44.249Z,6.17
2018-12-15T07:44:11.718Z,6.43
2018-12-15T07:46:39.217Z,6.77
2018-12-15T07:49:06.664Z,6.40
2018-12-15T07:51:34.158Z,6.50
2018-12-15T07:54:01.659Z,6.33
2018-12-15T07:56:29.207Z,6.53
2018-12-15T07:58:56.663Z,6.60
2018-12-15T08:01:24.195Z,7.33
2018-12-15T08:03:51.746Z,6.87
2018-12-15T08:06:19.359Z,6.40
2018-12-15T08:08:47.035Z,7.17
2018-12-15T08:11:20.139Z,6.60
2018-12-15T08:13:47.640Z,6.50
2018-12-15T08:16:15.117Z,7.13
2018-12-15T08:18:43.161Z,7.80
2018-12-15T08:21:10.758Z,8.40
2018-12-15T08:23:38.227Z,7.33
2018-12-15T08:26:05.693Z,7.70
2018-12-15T08:28:33.250Z,7.70
2018-12-15T08:31:00.797Z,7.93
2018-12-15T08:33:28.304Z,8.20
2018-12-15T08:35:55.801Z,8.10
2018-12-15T08:38:23.274Z,8.33
2018-12-15T08:40:50.749Z,8.20
2018-12-15T08:43:18.184Z,8.73
2018-12-15T08:45:45.770Z,8.13
2018-12-15T08:48:13.203Z,8.10
2018-12-15T08:50:44.361Z,9.03
2018-12-15T08:53:11.959Z,9.50
2018-12-15T08:55:39.540Z,8.80
2018-12-15T08:58:06.938Z,9.10
2018-12-15T09:00:34.662Z,7.87
2018-12-15T09:03:02.270Z,8.40
2018-12-15T09:05:29.846Z,8.30
2018-12-15T09:07:57.447Z,8.23
2018-12-15T09:10:25.026Z,8.10
2018-12-15T09:12:52.696Z,8.27
2018-12-15T09:15:20.323Z,7.93
2018-12-15T09:17:47.994Z,9.40
2018-12-15T09:20:15.462Z,10.43
2018-12-15T09:22:42.990Z,9.27
2018-12-15T09:25:10.552Z,8.97
2018-12-15T09:27:38.168Z,8.80
2018-12-15T09:30:06.988Z,8.57
2018-12-15T09:32:34.545Z,9.03
2018-12-15T09:35:02.131Z,9.17
2018-12-15T09:37:29.693Z,8.70
2018-12-15T09:39:57.289Z,9.10
2018-12-15T09:42:24.976Z,9.80
2018-12-15T09:44:52.528Z,9.73
2018-12-15T09:47:20.081Z,9.17
2018-12-15T09:49:47.701Z,9.77
2018-12-15T09:52:18.009Z,9.00
2018-12-15T09:54:46.069Z,9.53
2018-12-15T09:57:13.681Z,8.87
2018-12-15T09:59:41.198Z,9.73
2018-12-15T10:02:08.864Z,9.43
2018-12-15T10:04:36.363Z,8.77
2018-12-15T10:07:03.873Z,9.20
2018-12-15T10:09:31.415Z,10.73
2018-12-15T10:11:58.866Z,9.73
2018-12-15T10:14:26.374Z,10.07
2018-12-15T10:16:53.949Z,9.13
2018-12-15T10:19:24.316Z,9.23
2018-12-15T10:21:50.999Z,9.63
2018-12-15T10:24:18.545Z,10.03
2018-12-15T10:26:46.434Z,9.33
2018-12-15T10:31:24.580Z,9.87
2018-12-15T10:33:52.159Z,9.33
2018-12-15T10:36:19.692Z,9.23
2018-12-15T10:38:47.128Z,9.33
2018-12-15T10:41:14.559Z,9.23
2018-12-15T10:43:42.043Z,9.97
2018-12-15T10:46:09.522Z,9.80
2018-12-15T10:48:37.156Z,9.50
2018-12-15T10:51:04.618Z,10.37
2018-12-15T10:53:32.571Z,10.50
2018-12-15T10:56:00.135Z,10.17
2018-12-15T10:58:27.618Z,8.87
2018-12-15T11:00:56.260Z,9.03
2018-12-15T11:03:23.973Z,9.30
2018-12-15T11:05:53.818Z,9.50
2018-12-15T11:08:21.476Z,10.07
2018-12-15T11:10:49.014Z,9.90
2018-12-15T11:13:16.553Z,10.27
2018-12-15T11:15:44.167Z,9.90
2018-12-15T11:18:11.673Z,9.77
2018-12-15T11:20:39.321Z,9.80
2018-12-15T11:23:06.863Z,8.80
2018-12-15T11:25:34.326Z,8.90
2018-12-15T11:28:01.886Z,9.10
2018-12-15T11:30:29.562Z,9.73
2018-12-15T11:32:57.206Z,9.27
2018-12-15T11:35:24.696Z,9.97
2018-12-15T11:37:52.263Z,9.37
2018-12-15T11:40:19.911Z,9.60
2018-12-15T11:42:47.536Z,9.80
2018-12-15T11:45:15.062Z,8.43
2018-12-15T11:47:42.831Z,8.77
2018-12-15T11:50:10.508Z,8.73
2018-12-15T11:52:38.115Z,9.50
2018-12-15T11:55:05.648Z,8.60
2018-12-15T11:57:33.133Z,9.13
2018-12-15T12:00:00.747Z,8.87
2018-12-15T12:02:31.902Z,10.13
2018-12-15T12:04:58.199Z,9.70
2018-12-15T12:07:25.884Z,9.43
2018-12-15T12:09:53.632Z,8.93
2018-12-15T12:12:21.213Z,9.20
2018-12-15T12:14:48.894Z,13.67
2018-12-15T12:17:16.750Z,10.97
2018-12-15T12:19:49.986Z,11.03
2018-12-15T12:22:13.973Z,10.80
2018-12-15T12:24:41.537Z,8.50
2018-12-15T12:27:08.958Z,8.30
2018-12-15T12:29:37.430Z,9.43
2018-12-15T12:32:05.376Z,9.30
2018-12-15T12:34:33.010Z,8.80
2018-12-15T12:37:20.982Z,8.43
2018-12-15T12:39:48.640Z,8.73
2018-12-15T12:42:18.140Z,9.10
2018-12-15T12:44:45.777Z,9.07
2018-12-15T12:47:13.418Z,8.70
2018-12-15T12:49:40.960Z,8.57
2018-12-15T12:52:08.712Z,8.87
2018-12-15T12:54:36.543Z,8.13
2018-12-15T12:57:04.185Z,7.77
2018-12-15T12:59:31.829Z,8.37
2018-12-15T13:01:59.557Z,8.47
2018-12-15T13:04:27.357Z,7.53
2018-12-15T13:06:54.906Z,8.63
2018-12-15T13:09:22.549Z,8.80
2018-12-15T13:11:50.060Z,8.80
2018-12-15T13:14:17.650Z,9.40
2018-12-15T13:16:45.255Z,8.63
2018-12-15T13:19:16.191Z,7.97
2018-12-15T13:21:44.224Z,7.70
2018-12-15T13:24:11.958Z,8.13
2018-12-15T13:26:39.585Z,8.17
2018-12-15T13:29:07.261Z,8.43
2018-12-15T13:31:35.096Z,8.50
2018-12-15T13:34:03.459Z,8.87
2018-12-15T13:36:32.032Z,8.00
2018-12-15T13:38:59.735Z,7.67
2018-12-15T13:41:27.259Z,7.60
2018-12-15T13:43:54.817Z,8.43
2018-12-15T13:46:22.450Z,7.97
2018-12-15T13:48:50.142Z,8.17
2018-12-15T13:51:17.705Z,8.80
2018-12-15T13:53:45.385Z,8.60
2018-12-15T13:56:13.519Z,8.53
2018-12-15T13:58:41.223Z,8.07
2018-12-15T14:01:08.853Z,8.47
2018-12-15T14:03:36.623Z,8.83
2018-12-15T14:06:04.769Z,8.80
2018-12-15T14:08:32.426Z,8.40
2018-12-15T14:11:00.270Z,9.03
2018-12-15T14:13:28.567Z,8.57
2018-12-15T14:15:57.712Z,8.83
2018-12-15T14:18:25.645Z,8.03
2018-12-15T14:20:53.540Z,8.70
2018-12-15T14:23:21.278Z,8.60
2018-12-15T14:25:49.032Z,9.30
2018-12-15T14:28:16.664Z,9.33
2018-12-15T14:30:44.150Z,9.50
2018-12-15T14:33:13.817Z,8.57
2018-12-15T14:35:41.637Z,8.33
2018-12-15T14:38:09.278Z,8.73
2018-12-15T14:40:37.018Z,9.67
2018-12-15T14:43:05.510Z,10.13
2018-12-15T14:45:33.460Z,9.37
2018-12-15T14:48:01.252Z,9.57
2018-12-15T14:50:28.783Z,10.17
2018-12-15T14:52:56.864Z,10.63
2018-12-15T14:55:24.863Z,10.60
2018-12-15T14:57:52.604Z,9.90
2018-12-15T15:00:20.494Z,10.23
2018-12-15T15:02:48.130Z,9.87
2018-12-15T15:05:15.658Z,12.83
2018-12-15T15:07:43.068Z,10.30
2018-12-15T15:10:10.600Z,12.60
2018-12-15T15:12:38.123Z,10.67
2018-12-15T15:15:05.700Z,9.30
2018-12-15T15:17:33.215Z,10.80
2018-12-15T15:20:00.683Z,9.97
2018-12-15T15:22:28.146Z,10.20
2018-12-15T15:24:55.568Z,10.47
2018-12-15T15:27:22.986Z,10.77
2018-12-15T15:29:50.365Z,10.10
2018-12-15T15:32:17.736Z,10.40
2018-12-15T15:34:45.182Z,10.27
2018-12-15T15:37:12.625Z,10.47
2018-12-15T15:39:39.997Z,9.87
2018-12-15T15:42:07.343Z,10.07
2018-12-15T15:44:34.841Z,9.53
2018-12-15T15:47:02.260Z,10.53
2018-12-15T15:49:29.677Z,9.53
2018-12-15T15:51:57.151Z,10.17
2018-12-15T15:54:24.569Z,10.40
2018-12-15T15:56:51.976Z,10.37
2018-12-15T15:59:19.460Z,10.60
2018-12-15T16:01:46.997Z,10.50
2018-12-15T16:04:14.453Z,11.17
2018-12-15T16:06:41.817Z,12.60
2018-12-15T16:09:09.394Z,11.60
2018-12-15T16:11:37.209Z,11.60
2018-12-15T16:14:04.742Z,10.73
2018-12-15T16:16:33.749Z,13.57
2018-12-15T16:19:01.324Z,10.77
2018-12-15T16:21:28.861Z,10.40
2018-12-15T16:23:56.401Z,10.60
2018-12-15T16:26:23.925Z,11.17
2018-12-15T16:28:51.501Z,10.97
2018-12-15T16:34:15.356Z,9.80
2018-12-15T16:36:42.984Z,10.10
2018-12-15T16:39:10.557Z,9.93
2018-12-15T16:41:42.175Z,11.67
2018-12-15T16:44:07.717Z,11.33
2018-12-15T16:46:35.389Z,11.17
2018-12-15T16:49:03.097Z,11.47
2018-12-15T16:51:30.668Z,10.37
2018-12-15T16:53:58.165Z,10.40
2018-12-15T16:56:26.345Z,10.97
2018-12-15T16:58:53.917Z,9.80
2018-12-15T17:01:21.653Z,11.03
2018-12-15T17:03:49.149Z,10.00
2018-12-15T17:06:16.703Z,9.80
2018-12-15T17:08:44.309Z,10.17
2018-12-15T17:11:12.016Z,10.00
2018-12-15T17:13:39.777Z,9.83
2018-12-15T17:16:07.597Z,9.80
2018-12-15T17:18:35.127Z,10.27
2018-12-15T17:21:02.709Z,9.87
2018-12-15T17:23:30.838Z,10.23
2018-12-15T17:25:58.456Z,11.53
2018-12-15T17:28:26.237Z,10.73
2018-12-15T17:30:53.809Z,10.53
2018-12-15T17:33:21.319Z,11.33
2018-12-15T17:35:48.894Z,10.37
2018-12-15T17:38:16.604Z,11.70
2018-12-15T17:40:44.181Z,11.37
2018-12-15T17:43:11.742Z,10.27
2018-12-15T17:45:39.481Z,10.77
2018-12-15T17:48:06.992Z,11.77
2018-12-15T17:50:34.450Z,11.90
2018-12-15T17:53:01.996Z,12.97
2018-12-15T17:55:29.441Z,11.13
2018-12-15T17:57:57.174Z,9.63
2018-12-15T18:00:24.874Z,10.00
2018-12-15T18:02:52.354Z,9.53
2018-12-15T18:05:19.896Z,9.37
2018-12-15T18:07:48.347Z,8.60
2018-12-15T18:10:15.969Z,8.97
2018-12-15T18:12:43.556Z,8.73
2018-12-15T18:15:11.379Z,9.63
2018-12-15T18:17:38.950Z,8.73
2018-12-15T18:20:07.540Z,8.73
2018-12-15T18:22:35.158Z,8.87
2018-12-15T18:25:02.973Z,8.97
2018-12-15T18:27:30.624Z,8.63
2018-12-15T18:29:58.246Z,9.73
2018-12-15T18:32:25.770Z,10.30
2018-12-15T18:34:53.416Z,8.77
2018-12-15T18:37:21.100Z,9.07
2018-12-15T18:39:48.649Z,8.47
2018-12-15T18:42:16.293Z,8.83
2018-12-15T18:44:43.970Z,8.90
2018-12-15T18:47:11.691Z,8.47
2018-12-15T18:49:39.318Z,8.43
2018-12-15T18:52:07.078Z,7.83
2018-12-15T18:54:34.766Z,8.43
2018-12-15T18:57:02.383Z,7.87
2018-12-15T18:59:30.180Z,8.30
2018-12-15T19:01:57.808Z,8.33
2018-12-15T19:04:25.467Z,8.47
2018-12-15T19:06:53.024Z,7.73
2018-12-15T19:09:20.532Z,8.30
2018-12-15T19:11:48.053Z,8.37
2018-12-15T19:14:15.561Z,7.80
2018-12-15T19:16:43.106Z,8.13
2018-12-15T19:19:10.551Z,8.33
2018-12-15T19:21:38.170Z,8.73
2018-12-15T19:24:05.736Z,11.77
2018-12-15T19:26:33.192Z,9.80
2018-12-15T19:29:00.632Z,9.83
2018-12-15T19:31:28.065Z,11.70
2018-12-15T19:33:55.513Z,10.47
2018-12-15T19:36:22.995Z,11.70
2018-12-15T19:38:50.673Z,10.30
2018-12-15T19:41:18.202Z,8.50
2018-12-15T19:43:46.378Z,9.10
2018-12-15T19:46:14.784Z,9.23
2018-12-15T19:48:42.865Z,9.13
2018-12-15T19:51:10.355Z,9.10
2018-12-15T19:53:37.813Z,9.47
2018-12-15T19:56:05.195Z,9.07
2018-12-15T19:58:32.639Z,9.00
2018-12-15T20:01:00.117Z,9.00
2018-12-15T20:03:27.559Z,9.17
2018-12-15T20:05:55.041Z,9.80
2018-12-15T20:08:23.177Z,9.20
2018-12-15T20:10:50.580Z,9.77
2018-12-15T20:13:18.073Z,9.33
2018-12-15T20:15:45.582Z,9.57
2018-12-15T20:18:13.056Z,9.13
2018-12-15T20:20:40.511Z,9.20
2018-12-15T20:23:07.921Z,8.43
2018-12-15T20:25:35.525Z,9.27
2018-12-15T20:28:04.467Z,9.30
2018-12-15T20:30:31.921Z,13.75
2018-12-15T20:32:59.413Z,12.60
2018-12-15T20:35:26.829Z,12.37
2018-12-15T20:37:54.297Z,11.80
2018-12-15T20:40:21.804Z,12.07
2018-12-15T20:42:49.244Z,11.30
2018-12-15T20:45:16.701Z,10.40
2018-12-15T20:47:44.148Z,10.87
2018-12-15T20:50:11.651Z,11.13
2018-12-15T20:52:39.108Z,11.17
2018-12-15T20:55:06.523Z,11.17
2018-12-15T20:57:33.933Z,12.47
2018-12-15T21:00:01.328Z,12.10
2018-12-15T21:02:28.775Z,16.63
2018-12-15T21:04:56.207Z,13.40
2018-12-15T21:07:23.688Z,14.40
2018-12-15T21:09:51.141Z,12.70
2018-12-15T21:12:18.619Z,13.00
2018-12-15T21:14:46.387Z,14.30
2018-12-15T21:17:13.893Z,13.13
2018-12-15T21:19:47.682Z,11.77
2018-12-15T21:22:10.828Z,11.30
2018-12-15T21:24:38.250Z,10.97
2018-12-15T21:27:06.063Z,11.73
2018-12-15T21:29:33.550Z,11.67
2018-12-15T21:32:00.977Z,11.73
2018-12-15T21:34:28.553Z,11.80
2018-12-15T21:36:55.996Z,11.57
2018-12-15T21:39:23.455Z,11.07
2018-12-15T21:41:57.608Z,10.93
2018-12-15T21:44:25.180Z,11.60
2018-12-15T21:46:53.078Z,11.43
2018-12-15T21:49:20.535Z,10.60
2018-12-15T21:51:47.986Z,10.97
2018-12-15T21:54:15.413Z,10.50
2018-12-15T21:56:42.866Z,11.70
2018-12-15T21:59:10.316Z,11.40
2018-12-15T22:01:37.822Z,10.77
2018-12-15T22:04:05.221Z,10.80
2018-12-15T22:06:32.669Z,10.50
2018-12-15T22:09:00.102Z,9.93
2018-12-15T22:11:27.640Z,10.73
2018-12-15T22:13:55.106Z,10.80
2018-12-15T22:16:23.486Z,10.63
2018-12-15T22:18:50.944Z,10.17
2018-12-15T22:21:18.454Z,10.63
2018-12-15T22:23:45.920Z,10.17
2018-12-15T22:26:13.293Z,9.93
2018-12-15T22:28:40.790Z,9.83
2018-12-15T22:31:08.200Z,10.47
2018-12-15T22:33:35.687Z,10.67
2018-12-15T22:36:03.162Z,10.97
2018-12-15T22:38:30.602Z,10.87
2018-12-15T22:40:57.987Z,10.57
2018-12-15T22:43:26.897Z,11.17
2018-12-15T22:45:54.344Z,11.07
2018-12-15T22:48:23.098Z,10.67
2018-12-15T22:50:50.497Z,10.20
2018-12-15T22:53:17.898Z,10.17
2018-12-15T22:55:45.366Z,10.43
2018-12-15T22:58:12.775Z,10.17
2018-12-15T23:00:46.640Z,10.37
2018-12-15T23:03:20.827Z,10.07
2018-12-15T23:05:48.401Z,10.50
2018-12-15T23:08:17.068Z,10.07
2018-12-15T23:19:08.507Z,10.90
2018-12-15T23:21:36.478Z,10.80
2018-12-15T23:24:20.940Z,10.00
2018-12-15T23:29:42.725Z,10.03
2018-12-15T23:32:10.214Z,9.90
2018-12-15T23:34:37.830Z,10.27
2018-12-15T23:37:05.400Z,10.40
2018-12-15T23:39:32.938Z,9.00
2018-12-15T23:42:00.660Z,9.97
2018-12-15T23:44:28.252Z,10.00
2018-12-15T23:46:56.100Z,9.37
2018-12-15T23:49:23.537Z,9.73
2018-12-15T23:51:51.262Z,9.57
2018-12-15T23:54:18.930Z,9.20
2018-12-15T23:56:46.854Z,9.73
2018-12-15T23:59:14.414Z,9.60
